Time;durP1;ratioP1;P1;durP2;ratioP2;P2;SDS_P1;SDS_P2;PMS_P1;PMS_P2;Temp;Humidity;BMP_temperature;BMP_pressure;BME280_temperature;BME280_humidity;BME280_pressure;Samples;Min_cycle;Max_cycle;Signal;HPM_P1;HPM_P2
2023/07/21 00:01:07;;;;;;;6.00;3.40;;;22.10;63.00;;;;;;5107008;28;20859;-82
2023/07/21 00:03:35;;;;;;;7.53;3.83;;;22.00;63.00;;;;;;5107579;28;20459;-80
2023/07/21 00:06:06;;;;;;;6.20;3.63;;;22.00;62.90;;;;;;5107194;28;20467;-81
2023/07/21 00:08:34;;;;;;;7.97;3.93;;;21.90;62.90;;;;;;5102565;28;20448;-81
2023/07/21 00:11:03;;;;;;;6.83;3.43;;;21.90;62.90;;;;;;5104443;28;20490;-82
2023/07/21 00:13:34;;;;;;;7.90;3.10;;;21.90;63.00;;;;;;5105210;28;20534;-80
2023/07/21 00:16:05;;;;;;;11.13;3.90;;;21.90;63.00;;;;;;5110412;27;20478;-80
2023/07/21 00:18:35;;;;;;;6.37;3.63;;;22.00;63.10;;;;;;5110170;28;20516;-81
2023/07/21 00:21:05;;;;;;;11.77;3.80;;;22.00;63.20;;;;;;5110143;28;20498;-79
2023/07/21 00:23:33;;;;;;;8.70;3.73;;;21.90;63.40;;;;;;5108787;28;20465;-79
2023/07/21 00:26:01;;;;;;;6.20;3.60;;;21.90;63.60;;;;;;5109112;28;20534;-79
2023/07/21 00:28:29;;;;;;;7.00;3.50;;;21.90;63.70;;;;;;5103258;28;20819;-78
2023/07/21 00:30:57;;;;;;;6.00;3.03;;;21.90;63.70;;;;;;5108229;28;20484;-78
2023/07/21 00:33:28;;;;;;;6.97;3.20;;;21.80;63.70;;;;;;5102397;27;20456;-79
2023/07/21 00:35:56;;;;;;;9.00;3.33;;;21.80;63.70;;;;;;5105683;28;20468;-79
2023/07/21 00:38:25;;;;;;;7.43;3.60;;;21.80;63.70;;;;;;5104772;28;20454;-80
2023/07/21 00:40:53;;;;;;;7.47;3.63;;;21.80;63.60;;;;;;5107320;28;20488;-80
2023/07/21 00:43:21;;;;;;;7.67;3.20;;;21.80;63.60;;;;;;5102648;28;20460;-80
2023/07/21 00:45:49;;;;;;;6.47;3.80;;;21.80;63.70;;;;;;5111577;27;20535;-77
2023/07/21 00:48:18;;;;;;;6.17;3.53;;;21.70;63.90;;;;;;5105943;27;20444;-79
2023/07/21 00:50:50;;;;;;;6.40;3.70;;;21.70;64.00;;;;;;5107122;27;20841;-78
2023/07/21 00:53:20;;;;;;;7.83;4.23;;;21.60;64.30;;;;;;5104013;28;20531;-78
2023/07/21 00:55:50;;;;;;;6.83;3.70;;;21.50;64.40;;;;;;5107615;28;20860;-78
2023/07/21 00:58:22;;;;;;;8.20;3.63;;;21.40;64.50;;;;;;5103988;28;20492;-79
2023/07/21 01:00:50;;;;;;;5.60;3.60;;;21.40;64.50;;;;;;5106320;27;20557;-78
2023/07/21 01:03:19;;;;;;;7.37;4.30;;;21.30;64.70;;;;;;5104527;28;20459;-79
2023/07/21 01:05:52;;;;;;;8.70;4.40;;;21.30;64.80;;;;;;5102910;28;20467;-80
2023/07/21 01:08:21;;;;;;;7.40;4.20;;;21.30;64.90;;;;;;5107892;27;20536;-80
2023/07/21 01:10:51;;;;;;;9.10;4.30;;;21.30;65.00;;;;;;5107989;28;20594;-80
2023/07/21 01:13:20;;;;;;;8.37;4.20;;;21.30;65.00;;;;;;5105647;28;20898;-80
2023/07/21 01:15:52;;;;;;;6.60;4.10;;;21.30;64.90;;;;;;5108717;28;20883;-79
2023/07/21 01:18:22;;;;;;;6.20;3.70;;;21.30;65.00;;;;;;5101080;28;20487;-79
2023/07/21 01:20:52;;;;;;;6.00;3.43;;;21.30;65.00;;;;;;5102214;28;20907;-78
2023/07/21 01:23:28;;;;;;;8.23;4.27;;;21.30;65.00;;;;;;5108888;28;20456;-80
2023/07/21 01:25:59;;;;;;;9.57;3.90;;;21.30;65.00;;;;;;5108426;27;20547;-78
2023/07/21 01:28:29;;;;;;;7.27;3.90;;;21.30;65.00;;;;;;5105679;28;20465;-79
2023/07/21 01:30:57;;;;;;;7.33;3.80;;;21.30;65.00;;;;;;5104444;28;20535;-84
2023/07/21 01:33:28;;;;;;;7.10;4.07;;;21.30;65.10;;;;;;5106451;28;20491;-81
2023/07/21 01:35:58;;;;;;;6.80;3.40;;;21.30;65.20;;;;;;5100779;28;20500;-82
2023/07/21 01:38:29;;;;;;;6.60;3.90;;;21.20;65.30;;;;;;5108086;28;20829;-80
2023/07/21 01:40:59;;;;;;;8.30;3.87;;;21.20;65.30;;;;;;5106355;28;20464;-80
2023/07/21 01:43:27;;;;;;;6.90;3.57;;;21.20;65.40;;;;;;5104487;28;20440;-82
2023/07/21 01:45:55;;;;;;;6.70;4.10;;;21.20;65.40;;;;;;5105471;28;20470;-79
2023/07/21 01:48:29;;;;;;;7.50;4.00;;;21.20;65.40;;;;;;5103290;27;20495;-80
2023/07/21 01:50:59;;;;;;;8.97;3.97;;;21.10;65.50;;;;;;5100579;28;20998;-79
2023/07/21 01:53:29;;;;;;;7.40;4.17;;;21.10;65.60;;;;;;5102681;28;20452;-80
2023/07/21 01:56:05;;;;;;;6.40;4.10;;;21.10;65.60;;;;;;5105966;28;20495;-81
2023/07/21 01:58:34;;;;;;;6.60;4.20;;;21.10;65.70;;;;;;5102972;28;20464;-80
2023/07/21 02:01:03;;;;;;;7.57;4.43;;;21.10;65.70;;;;;;5099183;28;20493;-79
2023/07/21 02:03:31;;;;;;;7.67;4.20;;;21.00;65.70;;;;;;5101574;28;20489;-77
2023/07/21 02:05:59;;;;;;;6.60;4.13;;;21.00;65.90;;;;;;5103927;28;21306;-81
2023/07/21 02:08:27;;;;;;;11.17;4.40;;;21.00;65.90;;;;;;5103210;28;20463;-80
2023/07/21 02:10:55;;;;;;;9.07;4.93;;;20.90;66.00;;;;;;5102583;28;20456;-78
2023/07/21 02:13:48;;;;;;;11.03;4.30;;;20.80;66.20;;;;;;5099923;27;20481;-79
2023/07/21 02:16:17;;;;;;;12.37;4.87;;;20.80;66.40;;;;;;5104382;28;20473;-79
2023/07/21 02:18:45;;;;;;;7.50;4.57;;;20.70;66.50;;;;;;5107169;28;20456;-79
2023/07/21 02:21:13;;;;;;;6.10;4.07;;;20.60;66.70;;;;;;5101008;28;21026;-80
2023/07/21 02:23:41;;;;;;;7.47;3.90;;;20.60;66.80;;;;;;5104476;28;20513;-78
2023/07/21 02:26:09;;;;;;;7.77;4.17;;;20.50;66.90;;;;;;5102800;28;20559;-79
2023/07/21 02:28:36;;;;;;;7.17;4.63;;;20.50;67.10;;;;;;5100882;28;20543;-78
2023/07/21 02:31:09;;;;;;;6.63;4.03;;;20.50;67.10;;;;;;5105165;27;20864;-80
2023/07/21 02:33:37;;;;;;;7.57;4.00;;;20.50;67.30;;;;;;5100819;28;20457;-79
2023/07/21 02:36:06;;;;;;;6.37;3.70;;;20.50;67.30;;;;;;5103852;28;20499;-80
2023/07/21 02:38:36;;;;;;;7.73;4.57;;;20.40;67.40;;;;;;5101080;28;20456;-81
2023/07/21 02:41:04;;;;;;;7.97;4.77;;;20.50;67.50;;;;;;5099369;28;21040;-81
2023/07/21 02:43:33;;;;;;;7.17;3.50;;;20.40;67.60;;;;;;5107029;28;20456;-81
2023/07/21 02:46:02;;;;;;;7.23;4.50;;;20.40;67.70;;;;;;5102730;28;20462;-78
2023/07/21 02:48:33;;;;;;;8.70;4.40;;;20.40;67.80;;;;;;5100385;28;20464;-80
2023/07/21 02:51:02;;;;;;;7.40;4.03;;;20.30;67.90;;;;;;5101538;28;20480;-81
2023/07/21 02:53:36;;;;;;;6.50;4.30;;;20.20;67.80;;;;;;5102066;28;20549;-80
2023/07/21 02:56:04;;;;;;;7.40;4.87;;;20.20;67.90;;;;;;5100731;28;20500;-79
2023/07/21 02:58:50;;;;;;;9.57;5.00;;;20.20;68.00;;;;;;5099201;28;20576;-82
2023/07/21 03:01:21;;;;;;;6.33;3.90;;;20.20;68.00;;;;;;5096435;28;20491;-83
2023/07/21 03:03:54;;;;;;;7.13;4.20;;;20.30;68.10;;;;;;5100462;28;20498;-79
2023/07/21 03:06:22;;;;;;;7.50;4.40;;;20.30;68.10;;;;;;5100571;28;20481;-80
2023/07/21 03:08:53;;;;;;;6.50;4.30;;;20.30;68.10;;;;;;5097108;28;20902;-78
2023/07/21 03:11:25;;;;;;;6.17;4.10;;;20.30;68.20;;;;;;5097414;28;20823;-82
2023/07/21 03:14:13;;;;;;;6.80;4.30;;;20.20;68.20;;;;;;5097927;28;20461;-82
2023/07/21 03:16:41;;;;;;;6.63;4.40;;;20.20;68.30;;;;;;5102966;28;20543;-82
2023/07/21 03:19:12;;;;;;;8.80;5.17;;;20.20;68.40;;;;;;5100641;28;20464;-80
2023/07/21 03:21:42;;;;;;;7.30;4.40;;;20.20;68.40;;;;;;5099783;28;20937;-81
2023/07/21 03:24:10;;;;;;;8.47;4.57;;;20.30;68.40;;;;;;5105074;28;20454;-80
2023/07/21 03:26:39;;;;;;;6.87;4.43;;;20.30;68.40;;;;;;5103301;28;20464;-79
2023/07/21 03:29:07;;;;;;;6.10;3.90;;;20.30;68.50;;;;;;5101069;28;20548;-80
2023/07/21 03:31:37;;;;;;;6.60;4.43;;;20.30;68.50;;;;;;5104967;28;20534;-81
2023/07/21 03:34:12;;;;;;;7.70;4.83;;;20.30;68.40;;;;;;5103826;28;20464;-81
2023/07/21 03:36:40;;;;;;;6.40;3.97;;;20.30;68.40;;;;;;5101148;28;20464;-80
2023/07/21 03:39:08;;;;;;;6.90;4.30;;;20.30;68.40;;;;;;5099626;28;20481;-79
2023/07/21 03:41:36;;;;;;;7.40;4.10;;;20.30;68.40;;;;;;5099642;28;20569;-80
2023/07/21 03:44:04;;;;;;;10.50;4.27;;;20.30;68.40;;;;;;5104312;28;20444;-79
2023/07/21 03:46:54;;;;;;;10.13;4.50;;;20.30;68.40;;;;;;5100007;28;20460;-79
2023/07/21 03:49:35;;;;;;;8.23;4.50;;;20.40;68.50;;;;;;5096288;28;20460;-80
2023/07/21 03:52:09;;;;;;;8.23;3.80;;;20.40;68.50;;;;;;5107135;28;20468;-79
2023/07/21 03:54:39;;;;;;;7.77;4.70;;;20.30;68.50;;;;;;5102656;28;20452;-80
2023/07/21 03:57:07;;;;;;;8.17;4.40;;;20.30;68.40;;;;;;5101667;28;21253;-79
2023/07/21 03:59:37;;;;;;;8.43;4.67;;;20.20;68.70;;;;;;5102683;28;20472;-79
2023/07/21 04:02:06;;;;;;;6.60;4.53;;;20.10;68.90;;;;;;5099682;28;20488;-80
2023/07/21 04:04:36;;;;;;;7.07;4.40;;;20.10;69.00;;;;;;5099307;28;20460;-80
2023/07/21 04:07:07;;;;;;;13.07;4.20;;;20.10;69.00;;;;;;5092533;28;20571;-79
2023/07/21 04:09:37;;;;;;;8.17;3.83;;;20.10;69.00;;;;;;5097936;28;20455;-79
2023/07/21 04:12:06;;;;;;;13.30;4.27;;;20.10;69.00;;;;;;5102355;28;20453;-80
2023/07/21 04:14:34;;;;;;;7.07;4.77;;;20.10;69.10;;;;;;5097285;28;20480;-80
2023/07/21 04:17:02;;;;;;;6.03;3.50;;;20.20;69.20;;;;;;5091089;28;20469;-79
2023/07/21 04:19:30;;;;;;;8.10;4.37;;;20.20;69.20;;;;;;5097095;28;20527;-79
2023/07/21 04:22:00;;;;;;;6.07;3.90;;;20.20;69.40;;;;;;5099931;28;20570;-81
2023/07/21 04:24:28;;;;;;;6.80;4.53;;;20.20;69.60;;;;;;5097146;28;20492;-81
2023/07/21 04:26:56;;;;;;;8.70;4.80;;;20.20;69.60;;;;;;5101580;28;20619;-78
2023/07/21 04:29:25;;;;;;;7.23;4.80;;;20.20;69.70;;;;;;5105722;28;20592;-79
2023/07/21 04:32:04;;;;;;;10.20;4.63;;;20.20;69.90;;;;;;5101404;28;21190;-79
2023/07/21 04:34:33;;;;;;;8.70;5.40;;;20.20;70.10;;;;;;5103965;28;20451;-78
2023/07/21 04:37:03;;;;;;;6.70;4.37;;;20.10;70.10;;;;;;5104205;28;20455;-78
2023/07/21 04:39:36;;;;;;;6.70;4.27;;;20.10;70.00;;;;;;5109729;27;20453;-78
2023/07/21 04:42:05;;;;;;;8.07;4.43;;;20.10;69.90;;;;;;5103646;28;20476;-78
2023/07/21 04:44:34;;;;;;;7.67;5.27;;;20.10;69.80;;;;;;5106020;28;20455;-78
2023/07/21 04:47:04;;;;;;;8.73;4.70;;;20.10;69.70;;;;;;5104455;28;20550;-78
2023/07/21 04:49:38;;;;;;;9.70;4.37;;;20.10;69.70;;;;;;5105898;28;20459;-79
2023/07/21 04:52:08;;;;;;;6.47;4.20;;;20.20;69.50;;;;;;5103734;28;20926;-78
2023/07/21 04:54:36;;;;;;;7.10;3.60;;;20.30;69.40;;;;;;5107765;28;20555;-78
2023/07/21 04:57:05;;;;;;;5.93;3.63;;;20.30;69.40;;;;;;5103899;28;20517;-78
2023/07/21 04:59:33;;;;;;;6.07;3.80;;;20.40;69.40;;;;;;5101731;28;20456;-78
2023/07/21 05:02:01;;;;;;;6.17;3.53;;;20.40;69.50;;;;;;5105519;28;20482;-78
2023/07/21 05:04:30;;;;;;;7.27;4.60;;;20.40;69.60;;;;;;5107445;27;20498;-78
2023/07/21 05:06:58;;;;;;;7.20;4.33;;;20.40;69.60;;;;;;5101552;28;20464;-78
2023/07/21 05:09:28;;;;;;;9.90;4.97;;;20.40;69.70;;;;;;5105851;28;20461;-77
2023/07/21 05:12:19;;;;;;;10.27;4.63;;;20.50;69.70;;;;;;5105514;28;20555;-78
2023/07/21 05:14:54;;;;;;;7.97;5.00;;;20.50;69.80;;;;;;5100314;28;20538;-78
2023/07/21 05:17:42;;;;;;;8.17;4.70;;;20.50;69.80;;;;;;5105297;28;20809;-79
2023/07/21 05:20:30;;;;;;;6.30;4.10;;;20.60;69.90;;;;;;5104217;28;20814;-79
2023/07/21 05:23:06;;;;;;;8.90;4.10;;;20.60;69.80;;;;;;5102202;28;20478;-78
2023/07/21 05:25:47;;;;;;;6.67;4.00;;;20.60;69.60;;;;;;5105639;28;20867;-78
2023/07/21 05:28:15;;;;;;;6.63;4.07;;;20.60;69.30;;;;;;5104661;28;20908;-78
2023/07/21 05:30:49;;;;;;;8.00;4.50;;;20.60;69.20;;;;;;5105170;28;20562;-78
2023/07/21 05:33:20;;;;;;;6.80;4.30;;;20.60;69.10;;;;;;5115645;27;20984;-79
2023/07/21 05:35:49;;;;;;;6.97;4.20;;;20.60;69.00;;;;;;5104341;28;20942;-79
2023/07/21 05:38:27;;;;;;;8.93;4.03;;;20.60;68.80;;;;;;5106994;28;20538;-78
2023/07/21 05:41:00;;;;;;;7.53;4.70;;;20.70;68.60;;;;;;5104306;28;20449;-77
2023/07/21 05:43:30;;;;;;;6.50;4.40;;;20.70;68.40;;;;;;5105035;28;20451;-79
2023/07/21 05:45:59;;;;;;;8.27;4.40;;;20.60;68.40;;;;;;5100877;28;20958;-78
2023/07/21 05:48:27;;;;;;;6.87;3.90;;;20.60;68.40;;;;;;5096842;28;20444;-79
2023/07/21 05:50:58;;;;;;;7.27;3.57;;;20.70;68.40;;;;;;5098966;27;20462;-78
2023/07/21 05:53:26;;;;;;;6.50;3.90;;;20.80;68.40;;;;;;5093022;27;20466;-78
2023/07/21 05:55:55;;;;;;;6.90;4.03;;;20.80;68.30;;;;;;5101517;28;20963;-78
2023/07/21 05:58:38;;;;;;;8.10;4.13;;;20.80;68.40;;;;;;5103956;28;20464;-79
2023/07/21 06:01:06;;;;;;;13.77;4.60;;;20.80;68.50;;;;;;5099457;28;20555;-77
2023/07/21 06:03:37;;;;;;;7.83;4.17;;;20.80;68.70;;;;;;5103320;28;20479;-79
2023/07/21 06:06:05;;;;;;;7.33;4.30;;;20.90;68.80;;;;;;5101072;28;20552;-79
2023/07/21 06:08:53;;;;;;;8.13;4.63;;;20.90;68.90;;;;;;5099987;28;20444;-78
2023/07/21 06:11:37;;;;;;;8.37;4.50;;;21.00;68.80;;;;;;5102725;28;20462;-78
2023/07/21 06:14:15;;;;;;;6.67;4.03;;;21.00;68.70;;;;;;5095337;28;21057;-78
2023/07/21 06:16:55;;;;;;;8.87;4.57;;;20.90;68.80;;;;;;5098362;28;20992;-78
2023/07/21 06:19:24;;;;;;;9.00;4.60;;;20.90;69.00;;;;;;5104539;28;20820;-78
2023/07/21 06:21:53;;;;;;;9.33;4.23;;;20.90;68.90;;;;;;5106498;28;21285;-78
2023/07/21 06:24:22;;;;;;;8.13;4.90;;;20.90;69.00;;;;;;5115421;27;20448;-78
2023/07/21 06:26:50;;;;;;;7.70;4.97;;;20.90;69.10;;;;;;5099811;28;20488;-79
2023/07/21 06:29:20;;;;;;;9.33;5.27;;;20.90;69.30;;;;;;5098260;28;20455;-78
2023/07/21 06:31:49;;;;;;;8.53;4.57;;;20.90;69.40;;;;;;5102334;28;20578;-78
2023/07/21 06:34:36;;;;;;;7.13;4.60;;;20.80;69.30;;;;;;5101366;28;20559;-79
2023/07/21 06:37:11;;;;;;;6.67;4.30;;;20.80;69.30;;;;;;5106577;28;20459;-78
2023/07/21 06:40:01;;;;;;;7.97;4.57;;;20.80;69.60;;;;;;5068693;28;20440;-78
2023/07/21 06:42:49;;;;;;;6.40;4.23;;;20.80;69.80;;;;;;5096587;28;20468;-77
2023/07/21 06:45:40;;;;;;;7.80;4.27;;;20.90;69.80;;;;;;5102712;28;20971;-79
2023/07/21 06:48:31;;;;;;;10.00;4.87;;;20.90;69.80;;;;;;5088567;28;20527;-79
2023/07/21 06:51:04;;;;;;;7.00;4.40;;;20.90;69.80;;;;;;5100946;28;20460;-79
2023/07/21 06:53:32;;;;;;;6.60;4.50;;;21.00;69.90;;;;;;5100240;28;20484;-79
2023/07/21 06:56:00;;;;;;;7.13;4.20;;;21.10;69.70;;;;;;5102820;28;20505;-79
2023/07/21 06:58:28;;;;;;;7.10;4.33;;;21.10;69.60;;;;;;5104445;28;20463;-78
2023/07/21 07:00:57;;;;;;;5.50;3.30;;;21.20;69.40;;;;;;5100304;28;20471;-79
2023/07/21 07:03:26;;;;;;;6.40;4.10;;;21.20;69.00;;;;;;5100815;28;20476;-79
2023/07/21 07:05:54;;;;;;;8.53;4.40;;;21.20;68.70;;;;;;5104093;28;20551;-78
2023/07/21 07:08:22;;;;;;;7.67;4.10;;;21.20;68.70;;;;;;5101167;28;21331;-78
2023/07/21 07:10:50;;;;;;;7.67;4.53;;;21.20;68.70;;;;;;5103042;28;20981;-77
2023/07/21 07:13:18;;;;;;;7.83;4.30;;;21.20;68.60;;;;;;5101687;28;20448;-78
2023/07/21 07:15:49;;;;;;;6.73;4.03;;;21.20;68.70;;;;;;5101818;28;20458;-78
2023/07/21 07:18:19;;;;;;;8.63;4.20;;;21.30;68.60;;;;;;5099256;28;20467;-78
2023/07/21 07:20:51;;;;;;;7.87;4.37;;;21.40;68.50;;;;;;5103390;28;21168;-78
2023/07/21 07:23:20;;;;;;;7.23;3.83;;;21.50;68.20;;;;;;5096671;28;20468;-78
2023/07/21 07:25:49;;;;;;;5.90;3.50;;;21.60;68.10;;;;;;5097001;28;20475;-78
2023/07/21 07:28:18;;;;;;;5.90;3.80;;;21.70;67.90;;;;;;5098598;28;21229;-78
2023/07/21 07:30:46;;;;;;;8.40;4.30;;;21.70;67.90;;;;;;5093624;28;20924;-78
2023/07/21 07:33:15;;;;;;;7.30;3.70;;;21.80;67.60;;;;;;5099044;28;20464;-78
2023/07/21 07:35:52;;;;;;;8.00;4.47;;;21.80;67.30;;;;;;5094104;28;20554;-78
2023/07/21 07:38:26;;;;;;;6.23;3.60;;;21.90;67.10;;;;;;5100321;28;20555;-78
2023/07/21 07:41:01;;;;;;;7.40;3.40;;;21.90;67.00;;;;;;5103964;28;21187;-79
2023/07/21 07:43:32;;;;;;;6.80;3.37;;;22.00;66.90;;;;;;5096385;28;21176;-78
2023/07/21 07:46:00;;;;;;;7.33;3.40;;;22.10;66.80;;;;;;5095331;28;20505;-79
2023/07/21 07:48:31;;;;;;;7.40;3.87;;;22.10;66.50;;;;;;5095137;28;20460;-78
2023/07/21 07:51:03;;;;;;;7.47;4.50;;;22.10;66.30;;;;;;5101204;28;20455;-78
2023/07/21 07:53:32;;;;;;;7.30;3.97;;;22.00;66.00;;;;;;5103375;28;20452;-79
2023/07/21 07:56:00;;;;;;;10.90;4.23;;;22.00;66.00;;;;;;5099406;28;20513;-79
2023/07/21 07:58:28;;;;;;;7.33;3.47;;;21.90;65.90;;;;;;5099192;28;20519;-78
2023/07/21 08:00:58;;;;;;;6.37;3.43;;;21.90;65.90;;;;;;5100729;28;20476;-78
2023/07/21 08:03:31;;;;;;;7.17;3.97;;;21.90;65.80;;;;;;5101887;28;20951;-78
2023/07/21 08:06:01;;;;;;;6.33;3.77;;;21.90;65.90;;;;;;5101584;28;20487;-78
2023/07/21 08:08:29;;;;;;;7.03;3.90;;;22.00;65.90;;;;;;5099942;28;21017;-78
2023/07/21 08:10:57;;;;;;;8.10;3.87;;;22.00;66.00;;;;;;5107147;28;20543;-82
2023/07/21 08:13:25;;;;;;;6.73;4.10;;;22.10;66.10;;;;;;5107575;28;20462;-79
2023/07/21 08:15:53;;;;;;;6.80;4.60;;;22.20;66.00;;;;;;5103566;28;20464;-78
2023/07/21 08:18:21;;;;;;;6.70;4.40;;;22.20;66.00;;;;;;5104331;28;20452;-78
2023/07/21 08:20:51;;;;;;;9.30;4.80;;;22.20;65.90;;;;;;5104857;28;20458;-79
2023/07/21 08:23:20;;;;;;;7.13;4.00;;;22.20;65.90;;;;;;5104606;28;20967;-78
2023/07/21 08:25:57;;;;;;;6.40;3.63;;;22.10;66.00;;;;;;5104858;28;20464;-79
2023/07/21 08:28:25;;;;;;;7.47;4.20;;;22.10;66.00;;;;;;5103658;28;20504;-79
2023/07/21 08:30:53;;;;;;;8.60;4.00;;;22.10;66.00;;;;;;5102743;27;20460;-79
2023/07/21 08:33:27;;;;;;;5.97;3.83;;;22.20;65.90;;;;;;5105270;28;20451;-79
2023/07/21 08:35:55;;;;;;;7.53;3.93;;;22.20;65.90;;;;;;5103332;28;20479;-78
2023/07/21 08:38:25;;;;;;;11.87;4.50;;;22.20;65.90;;;;;;5102070;28;20462;-79
2023/07/21 08:41:04;;;;;;;6.40;3.93;;;22.20;65.90;;;;;;5097621;28;20447;-79
2023/07/21 08:43:32;;;;;;;6.80;4.37;;;22.20;66.00;;;;;;5103469;28;21380;-79
2023/07/21 08:46:05;;;;;;;6.47;3.90;;;22.20;66.20;;;;;;5093672;28;20448;-79
2023/07/21 08:48:35;;;;;;;8.20;3.90;;;22.20;66.20;;;;;;5104252;28;20527;-79
2023/07/21 08:51:04;;;;;;;6.40;3.83;;;22.20;66.30;;;;;;5101349;28;20960;-78
2023/07/21 08:53:33;;;;;;;6.33;4.40;;;22.20;66.30;;;;;;5102351;28;20826;-79
2023/07/21 08:56:02;;;;;;;7.90;4.70;;;22.30;66.30;;;;;;5099591;28;20461;-79
2023/07/21 08:58:31;;;;;;;7.90;4.57;;;22.30;66.30;;;;;;5102228;28;20444;-79
2023/07/21 09:00:59;;;;;;;7.93;4.90;;;22.40;66.50;;;;;;5101960;27;20559;-78
2023/07/21 09:03:30;;;;;;;6.67;4.27;;;22.40;66.60;;;;;;5095657;27;20562;-79
2023/07/21 09:06:01;;;;;;;6.77;4.80;;;22.40;66.70;;;;;;5100297;28;20461;-78
2023/07/21 09:08:30;;;;;;;6.23;4.30;;;22.40;66.70;;;;;;5103946;28;20487;-78
2023/07/21 09:11:00;;;;;;;7.80;3.63;;;22.50;66.90;;;;;;5100035;28;20558;-78
2023/07/21 09:13:30;;;;;;;6.70;3.93;;;22.50;66.90;;;;;;5105448;28;20479;-78
2023/07/21 09:15:59;;;;;;;6.30;4.10;;;22.50;66.80;;;;;;5101645;28;20448;-78
2023/07/21 09:18:28;;;;;;;6.63;3.77;;;22.50;66.80;;;;;;5108643;28;20448;-79
2023/07/21 09:20:57;;;;;;;6.07;3.83;;;22.60;66.80;;;;;;5099099;28;20468;-78
2023/07/21 09:23:29;;;;;;;8.80;4.50;;;22.60;66.70;;;;;;5102897;28;21066;-78
2023/07/21 09:26:00;;;;;;;7.23;4.17;;;22.70;66.70;;;;;;5104000;28;20479;-79
2023/07/21 09:28:42;;;;;;;7.10;4.00;;;22.70;66.50;;;;;;5108461;28;20543;-78
2023/07/21 09:31:11;;;;;;;7.70;4.10;;;22.70;66.30;;;;;;5103757;28;20467;-79
2023/07/21 09:33:43;;;;;;;5.93;3.77;;;22.80;66.30;;;;;;5099026;28;20452;-78
2023/07/21 09:36:13;;;;;;;6.70;4.30;;;22.80;66.10;;;;;;5107383;28;20464;-78
2023/07/21 09:38:41;;;;;;;7.47;4.13;;;22.90;65.80;;;;;;5107066;27;20513;-79
2023/07/21 09:41:12;;;;;;;6.20;3.70;;;22.90;65.30;;;;;;5105597;28;20452;-79
2023/07/21 09:43:41;;;;;;;9.60;4.20;;;22.90;65.20;;;;;;5105586;28;20468;-79
2023/07/21 09:46:10;;;;;;;6.17;3.80;;;22.90;65.30;;;;;;5100794;28;21380;-77
2023/07/21 09:48:41;;;;;;;10.37;4.13;;;23.00;65.10;;;;;;5099378;28;20463;-77
2023/07/21 09:51:11;;;;;;;6.27;3.20;;;23.00;65.00;;;;;;5098719;28;20448;-78
2023/07/21 09:53:40;;;;;;;5.67;3.23;;;23.10;64.80;;;;;;5099603;28;20461;-77
2023/07/21 09:56:11;;;;;;;6.97;3.70;;;23.20;64.70;;;;;;5101563;28;21022;-79
2023/07/21 09:58:43;;;;;;;6.50;3.60;;;23.20;64.50;;;;;;5102963;28;20456;-79
2023/07/21 10:01:12;;;;;;;8.70;3.10;;;23.30;64.20;;;;;;5099640;28;20464;-78
2023/07/21 10:03:42;;;;;;;6.57;3.50;;;23.40;64.10;;;;;;5106215;28;20846;-78
2023/07/21 10:06:11;;;;;;;5.93;3.37;;;23.50;64.00;;;;;;5095872;28;20895;-78
2023/07/21 10:08:40;;;;;;;8.80;4.03;;;23.50;63.90;;;;;;5105071;28;20462;-79
2023/07/21 10:11:09;;;;;;;6.10;3.23;;;23.60;63.80;;;;;;5107250;28;20448;-78
2023/07/21 10:13:45;;;;;;;6.50;3.47;;;23.70;63.70;;;;;;5102888;28;20502;-79
2023/07/21 10:16:14;;;;;;;7.43;3.60;;;23.80;63.30;;;;;;5103571;28;20483;-78
2023/07/21 10:19:11;;;;;;;7.73;3.03;;;23.80;63.20;;;;;;5097347;28;20492;-78
2023/07/21 10:21:52;;;;;;;7.37;3.80;;;23.90;62.90;;;;;;5074020;27;20452;-78
2023/07/21 10:24:24;;;;;;;6.43;3.60;;;24.00;62.80;;;;;;5094475;27;20501;-79
2023/07/21 10:27:01;;;;;;;5.73;3.23;;;24.00;62.50;;;;;;5096548;27;20810;-79
2023/07/21 10:29:32;;;;;;;8.20;3.97;;;24.10;62.40;;;;;;5097138;27;20665;-79
2023/07/21 10:32:05;;;;;;;5.10;3.00;;;24.10;62.20;;;;;;5099054;28;20481;-78
2023/07/21 10:34:35;;;;;;;9.57;3.60;;;24.20;61.90;;;;;;5096818;28;20498;-79
2023/07/21 10:37:05;;;;;;;9.10;4.07;;;24.20;61.40;;;;;;5100914;27;20953;-78
2023/07/21 10:39:35;;;;;;;6.63;3.40;;;24.20;61.20;;;;;;5094679;28;20489;-78
2023/07/21 10:42:04;;;;;;;8.20;3.63;;;24.20;61.00;;;;;;5102905;28;20455;-78
2023/07/21 10:44:35;;;;;;;7.47;3.37;;;24.20;60.80;;;;;;5094287;28;20460;-79
2023/07/21 10:47:04;;;;;;;5.87;3.33;;;24.30;60.50;;;;;;5099659;27;20476;-79
2023/07/21 10:49:34;;;;;;;9.80;3.50;;;24.30;60.40;;;;;;5103261;28;20516;-78
2023/07/21 10:52:04;;;;;;;8.90;3.53;;;24.30;60.40;;;;;;5100862;28;20456;-79
2023/07/21 10:54:33;;;;;;;6.50;3.83;;;24.30;60.20;;;;;;5098632;28;21590;-79
2023/07/21 10:57:02;;;;;;;7.23;3.53;;;24.40;60.20;;;;;;5102080;28;20493;-79
2023/07/21 10:59:35;;;;;;;6.43;3.97;;;24.30;60.00;;;;;;5097300;28;20464;-78
2023/07/21 11:02:06;;;;;;;7.20;4.23;;;24.30;60.00;;;;;;5097652;28;20472;-78
2023/07/21 11:04:35;;;;;;;7.23;4.37;;;24.40;60.00;;;;;;5096294;28;20500;-78
2023/07/21 11:07:04;;;;;;;6.23;3.80;;;24.40;60.10;;;;;;5097858;28;20478;-79
2023/07/21 11:09:33;;;;;;;7.67;3.70;;;24.50;60.10;;;;;;5105040;28;20479;-78
2023/07/21 11:12:04;;;;;;;10.60;4.40;;;24.40;59.80;;;;;;5097443;28;20456;-79
2023/07/21 11:14:34;;;;;;;5.90;3.67;;;24.40;59.60;;;;;;5095661;28;20452;-79
2023/07/21 11:17:03;;;;;;;5.73;3.37;;;24.30;59.40;;;;;;5101094;28;20463;-78
2023/07/21 11:19:33;;;;;;;7.77;3.70;;;24.30;59.30;;;;;;5100512;28;20461;-79
2023/07/21 11:22:04;;;;;;;9.37;4.47;;;24.30;59.30;;;;;;5099107;28;20854;-79
2023/07/21 11:24:33;;;;;;;5.80;3.77;;;24.30;59.20;;;;;;5101558;28;21088;-79
2023/07/21 11:27:03;;;;;;;7.07;3.70;;;24.20;59.20;;;;;;5100427;28;21193;-78
2023/07/21 11:29:38;;;;;;;6.90;4.13;;;24.20;59.30;;;;;;5106829;28;20466;-78
2023/07/21 11:32:17;;;;;;;7.00;3.80;;;24.20;59.30;;;;;;5103998;28;20483;-79
2023/07/21 11:34:45;;;;;;;6.50;4.20;;;24.30;59.30;;;;;;5114831;28;20474;-78
2023/07/21 11:37:14;;;;;;;8.40;4.60;;;24.40;59.30;;;;;;5104067;28;20492;-78
2023/07/21 11:39:43;;;;;;;8.17;4.07;;;24.40;59.20;;;;;;5102757;28;20521;-78
2023/07/21 11:42:11;;;;;;;10.20;4.40;;;24.50;59.20;;;;;;5103786;28;20455;-78
2023/07/21 11:44:40;;;;;;;10.33;5.13;;;24.50;59.20;;;;;;5105443;28;20452;-78
2023/07/21 11:47:10;;;;;;;9.43;4.77;;;24.60;59.20;;;;;;5104741;28;20535;-79
2023/07/21 11:49:39;;;;;;;6.97;3.80;;;24.60;59.00;;;;;;5104414;28;20460;-79
2023/07/21 11:52:08;;;;;;;7.73;4.27;;;24.70;59.00;;;;;;5103058;28;20543;-79
2023/07/21 11:54:39;;;;;;;7.10;3.90;;;24.70;58.80;;;;;;5104210;28;21034;-79
2023/07/21 11:57:08;;;;;;;8.93;4.70;;;24.70;58.90;;;;;;5103545;28;20554;-79
2023/07/21 11:59:37;;;;;;;5.77;4.23;;;24.80;58.80;;;;;;5100175;28;20447;-78
2023/07/21 12:02:07;;;;;;;7.17;3.83;;;24.80;58.80;;;;;;5105354;28;20537;-78
2023/07/21 12:04:38;;;;;;;6.37;3.53;;;24.80;58.70;;;;;;5103701;27;20477;-77
2023/07/21 12:07:07;;;;;;;7.73;3.50;;;24.70;58.70;;;;;;5105437;28;20806;-79
2023/07/21 12:09:35;;;;;;;8.10;4.30;;;24.70;58.50;;;;;;5108337;28;20444;-79
2023/07/21 12:12:05;;;;;;;9.63;3.37;;;24.60;58.30;;;;;;5105300;27;20513;-79
2023/07/21 12:14:33;;;;;;;10.00;4.40;;;24.60;58.40;;;;;;5102344;28;20449;-79
2023/07/21 12:17:01;;;;;;;6.67;3.70;;;24.50;58.60;;;;;;5102648;27;20489;-79
2023/07/21 12:19:31;;;;;;;6.90;3.60;;;24.50;58.40;;;;;;5101152;28;20488;-79
2023/07/21 12:21:59;;;;;;;7.60;4.20;;;24.60;58.20;;;;;;5111163;27;20962;-78
2023/07/21 12:24:29;;;;;;;6.57;4.17;;;24.60;58.20;;;;;;5104132;28;20987;-79
2023/07/21 12:26:57;;;;;;;6.60;3.63;;;24.70;58.10;;;;;;5110874;27;20534;-78
2023/07/21 12:29:25;;;;;;;6.80;3.80;;;24.70;57.90;;;;;;5104005;28;20493;-79
2023/07/21 12:32:12;;;;;;;6.60;3.80;;;24.70;57.80;;;;;;5102030;28;20468;-78
2023/07/21 12:34:41;;;;;;;5.50;2.73;;;24.60;57.50;;;;;;5103860;28;20452;-78
2023/07/21 12:37:10;;;;;;;6.07;3.20;;;24.60;57.60;;;;;;5105128;28;20455;-78
2023/07/21 12:39:38;;;;;;;6.50;3.53;;;24.50;57.60;;;;;;5105746;28;20454;-79
2023/07/21 12:42:07;;;;;;;6.00;3.17;;;24.50;57.70;;;;;;5107081;28;20462;-78
2023/07/21 12:44:35;;;;;;;6.40;3.80;;;24.50;57.70;;;;;;5100042;28;20444;-79
2023/07/21 12:47:03;;;;;;;6.17;3.30;;;24.50;57.70;;;;;;5104561;28;20490;-79
2023/07/21 12:49:32;;;;;;;7.63;3.70;;;24.40;57.80;;;;;;5101982;28;20543;-78
2023/07/21 12:52:01;;;;;;;9.33;4.33;;;24.40;57.80;;;;;;5106248;28;20445;-80
2023/07/21 12:54:29;;;;;;;7.37;3.77;;;24.30;57.80;;;;;;5103303;27;20988;-79
2023/07/21 12:56:58;;;;;;;8.40;4.17;;;24.30;57.80;;;;;;5102223;28;20448;-78
2023/07/21 12:59:26;;;;;;;6.33;3.60;;;24.30;57.90;;;;;;5105365;28;20444;-79
2023/07/21 13:01:54;;;;;;;6.50;3.97;;;24.20;58.00;;;;;;5120206;27;20474;-78
2023/07/21 13:04:23;;;;;;;9.40;4.00;;;24.10;58.20;;;;;;5104397;28;20481;-79